PWSweather.com
Personal Weather Stations
Station Observations
KMIEASTT1
Tawas Bay, East Tawas, MI 48730

Tawas BayEast Tawas, MI 48730

Lat: 44.28, Lon: -83.48

Elevation: 600

Station Type: Davis VantagePro

http://www.tawasbayweather.com

High Low Average
Temperature 40.0°F4.4°C 32.9°F0.5°C 36.7°F2.6°C
Dew Point 37.6°F3.1°C 30.2°F-1.0°C 33.8°F1.0°C
Winds 21.0 mph 33.8 kmh 8.0 mph 12.9 kmh 15.0 mph SSW24.1 kmh SSW
Wind Gusts 25.0 mph40.2 kmh 13.0 mph20.9 kmh 19.0 mph30.6 kmh
Humidity 92% 85% 89%
Pressure 30.53 in1033.9 mb 30.23 in1023.7 mb -
Precipitation 0.00 in0.0 mm - -
Hour Temp Dew Point Humidity Winds Wind Gusts Pressure Precip Precip Rate Daily Precip Total
12:01 AM 34.5°F1.4°C 29.9°F-1.2°C 83% 13.0 mph SSW20.9 kmh SSW 16.0 mph25.7 kmh 30.52 in1033.5 mb 0.00 in0.0 mm 0.00 in/hr0.0 mm/hr 0.00 in0.0 mm
12:15 AM 34.6°F1.4°C 30.3°F-0.9°C 84% 17.0 mph S27.4 kmh S 18.0 mph29.0 kmh 30.52 in1033.5 mb 0.00 in0.0 mm 0.00 in/hr0.0 mm/hr 0.00 in0.0 mm
12:30 AM 34.6°F1.4°C 30.3°F-0.9°C 84% 14.0 mph SW22.5 kmh SW 18.0 mph29.0 kmh 30.53 in1033.9 mb 0.00 in0.0 mm 0.00 in/hr0.0 mm/hr 0.00 in0.0 mm
12:45 AM 34.4°F1.3°C 30.7°F-0.7°C 86% 15.0 mph S24.1 kmh S 19.0 mph30.6 kmh 30.53 in1033.9 mb 0.00 in0.0 mm 0.00 in/hr0.0 mm/hr 0.00 in0.0 mm
01:01 AM 34.3°F1.3°C 30.3°F-0.9°C 85% 16.0 mph SSW25.7 kmh SSW 19.0 mph30.6 kmh 30.53 in1033.9 mb 0.00 in0.0 mm 0.00 in/hr0.0 mm/hr 0.00 in0.0 mm
01:15 AM 34.2°F1.2°C 30.2°F-1.0°C 85% 17.0 mph SSW27.4 kmh SSW 18.0 mph29.0 kmh 30.53 in1033.9 mb 0.00 in0.0 mm 0.00 in/hr0.0 mm/hr 0.00 in0.0 mm
01:30 AM 34.3°F1.3°C 30.6°F-0.8°C 86% 13.0 mph S20.9 kmh S 17.0 mph27.4 kmh 30.52 in1033.5 mb 0.00 in0.0 mm 0.00 in/hr0.0 mm/hr 0.00 in0.0 mm
01:45 AM 34.7°F1.5°C 31.0°F-0.6°C 86% 13.0 mph SSW20.9 kmh SSW 17.0 mph27.4 kmh 30.52 in1033.5 mb 0.00 in0.0 mm 0.00 in/hr0.0 mm/hr 0.00 in0.0 mm
02:01 AM 34.8°F1.6°C 31.3°F-0.4°C 87% 11.0 mph SSW17.7 kmh SSW 18.0 mph29.0 kmh 30.51 in1033.2 mb 0.00 in0.0 mm 0.00 in/hr0.0 mm/hr 0.00 in0.0 mm
02:15 AM 35.1°F1.7°C 31.3°F-0.4°C 86% 13.0 mph SSW20.9 kmh SSW 18.0 mph29.0 kmh 30.50 in1032.8 mb 0.00 in0.0 mm 0.00 in/hr0.0 mm/hr 0.00 in0.0 mm
02:30 AM 35.3°F1.8°C 31.5°F-0.3°C 86% 19.0 mph S30.6 kmh S 20.0 mph32.2 kmh 30.49 in1032.5 mb 0.00 in0.0 mm 0.00 in/hr0.0 mm/hr 0.00 in0.0 mm
02:45 AM 35.3°F1.8°C 31.5°F-0.3°C 86% 17.0 mph SSW27.4 kmh SSW 19.0 mph30.6 kmh 30.49 in1032.5 mb 0.00 in0.0 mm 0.00 in/hr0.0 mm/hr 0.00 in0.0 mm
03:01 AM 35.0°F1.7°C 31.5°F-0.3°C 87% 14.0 mph SSW22.5 kmh SSW 20.0 mph32.2 kmh 30.50 in1032.8 mb 0.00 in0.0 mm 0.00 in/hr0.0 mm/hr 0.00 in0.0 mm
03:15 AM 34.5°F1.4°C 31.3°F-0.4°C 88% 14.0 mph S22.5 kmh S 21.0 mph33.8 kmh 30.49 in1032.5 mb 0.00 in0.0 mm 0.00 in/hr0.0 mm/hr 0.00 in0.0 mm
03:30 AM 34.4°F1.3°C 31.2°F-0.4°C 88% 17.0 mph SSW27.4 kmh SSW 19.0 mph30.6 kmh 30.49 in1032.5 mb 0.00 in0.0 mm 0.00 in/hr0.0 mm/hr 0.00 in0.0 mm
03:45 AM 34.3°F1.3°C 30.8°F-0.7°C 87% 12.0 mph S19.3 kmh S 23.0 mph37.0 kmh 30.48 in1032.2 mb 0.00 in0.0 mm 0.00 in/hr0.0 mm/hr 0.00 in0.0 mm
04:01 AM 34.4°F1.3°C 31.2°F-0.4°C 88% 19.0 mph SW30.6 kmh SW 21.0 mph33.8 kmh 30.48 in1032.2 mb 0.00 in0.0 mm 0.00 in/hr0.0 mm/hr 0.00 in0.0 mm
04:15 AM 34.0°F1.1°C 31.4°F-0.3°C 90% 21.0 mph S33.8 kmh S 21.0 mph33.8 kmh 30.48 in1032.2 mb 0.00 in0.0 mm 0.00 in/hr0.0 mm/hr 0.00 in0.0 mm
04:31 AM 33.6°F0.9°C 30.7°F-0.7°C 89% 20.0 mph S32.2 kmh S 22.0 mph35.4 kmh 30.47 in1031.8 mb 0.00 in0.0 mm 0.00 in/hr0.0 mm/hr 0.00 in0.0 mm
04:45 AM 33.5°F0.8°C 30.9°F-0.6°C 90% 15.0 mph SW24.1 kmh SW 17.0 mph27.4 kmh 30.47 in1031.8 mb 0.00 in0.0 mm 0.00 in/hr0.0 mm/hr 0.00 in0.0 mm
05:01 AM 33.3°F0.7°C 30.4°F-0.9°C 89% 14.0 mph SSW22.5 kmh SSW 20.0 mph32.2 kmh 30.47 in1031.8 mb 0.00 in0.0 mm 0.00 in/hr0.0 mm/hr 0.00 in0.0 mm
05:15 AM 33.3°F0.7°C 30.4°F-0.9°C 89% 17.0 mph SSW27.4 kmh SSW 23.0 mph37.0 kmh 30.46 in1031.5 mb 0.00 in0.0 mm 0.00 in/hr0.0 mm/hr 0.00 in0.0 mm
05:30 AM 32.9°F0.5°C 30.3°F-0.9°C 90% 13.0 mph SSW20.9 kmh SSW 17.0 mph27.4 kmh 30.46 in1031.5 mb 0.00 in0.0 mm 0.00 in/hr0.0 mm/hr 0.00 in0.0 mm
05:45 AM 33.1°F0.6°C 30.8°F-0.7°C 91% 10.0 mph SSW16.1 kmh SSW 13.0 mph20.9 kmh 30.45 in1031.2 mb 0.00 in0.0 mm 0.00 in/hr0.0 mm/hr 0.00 in0.0 mm
06:01 AM 34.2°F1.2°C 31.6°F-0.2°C 90% 15.0 mph S24.1 kmh S 22.0 mph35.4 kmh 30.45 in1031.2 mb 0.00 in0.0 mm 0.00 in/hr0.0 mm/hr 0.00 in0.0 mm
06:15 AM 34.3°F1.3°C 32.0°F0.0°C 91% 16.0 mph S25.7 kmh S 20.0 mph32.2 kmh 30.44 in1030.8 mb 0.00 in0.0 mm 0.00 in/hr0.0 mm/hr 0.00 in0.0 mm
06:31 AM 34.1°F1.2°C 31.5°F-0.3°C 90% 18.0 mph S29.0 kmh S 22.0 mph35.4 kmh 30.44 in1030.8 mb 0.00 in0.0 mm 0.00 in/hr0.0 mm/hr 0.00 in0.0 mm
06:45 AM 34.1°F1.2°C 31.8°F-0.1°C 91% 15.0 mph SSW24.1 kmh SSW 22.0 mph35.4 kmh 30.44 in1030.8 mb 0.00 in0.0 mm 0.00 in/hr0.0 mm/hr 0.00 in0.0 mm
07:01 AM 34.2°F1.2°C 32.1°F0.1°C 92% 14.0 mph SSW22.5 kmh SSW 25.0 mph40.2 kmh 30.44 in1030.8 mb 0.00 in0.0 mm 0.00 in/hr0.0 mm/hr 0.00 in0.0 mm
07:15 AM 34.3°F1.3°C 32.0°F0.0°C 91% 20.0 mph S32.2 kmh S 21.0 mph33.8 kmh 30.43 in1030.5 mb 0.00 in0.0 mm 0.00 in/hr0.0 mm/hr 0.00 in0.0 mm
07:30 AM 34.7°F1.5°C 32.4°F0.2°C 91% 19.0 mph S30.6 kmh S 21.0 mph33.8 kmh 30.43 in1030.5 mb 0.00 in0.0 mm 0.00 in/hr0.0 mm/hr 0.00 in0.0 mm
07:45 AM 34.9°F1.6°C 32.3°F0.2°C 90% 20.0 mph S32.2 kmh S 21.0 mph33.8 kmh 30.42 in1030.1 mb 0.00 in0.0 mm 0.00 in/hr0.0 mm/hr 0.00 in0.0 mm
08:01 AM 34.9°F1.6°C 32.5°F0.3°C 91% 17.0 mph S27.4 kmh S 20.0 mph32.2 kmh 30.40 in1029.5 mb 0.00 in0.0 mm 0.00 in/hr0.0 mm/hr 0.00 in0.0 mm
08:15 AM 35.3°F1.8°C 32.7°F0.4°C 90% 16.0 mph S25.7 kmh S 21.0 mph33.8 kmh 30.39 in1029.1 mb 0.00 in0.0 mm 0.00 in/hr0.0 mm/hr 0.00 in0.0 mm
08:30 AM 35.5°F1.9°C 32.9°F0.5°C 90% 17.0 mph S27.4 kmh S 22.0 mph35.4 kmh 30.38 in1028.8 mb 0.00 in0.0 mm 0.00 in/hr0.0 mm/hr 0.00 in0.0 mm
08:45 AM 35.9°F2.2°C 33.3°F0.7°C 90% 17.0 mph S27.4 kmh S 22.0 mph35.4 kmh 30.38 in1028.8 mb 0.00 in0.0 mm 0.00 in/hr0.0 mm/hr 0.00 in0.0 mm
09:01 AM 36.3°F2.4°C 33.7°F0.9°C 90% 15.0 mph S24.1 kmh S 21.0 mph33.8 kmh 30.38 in1028.8 mb 0.00 in0.0 mm 0.00 in/hr0.0 mm/hr 0.00 in0.0 mm
09:15 AM 36.5°F2.5°C 33.9°F1.1°C 90% 18.0 mph S29.0 kmh S 22.0 mph35.4 kmh 30.38 in1028.8 mb 0.00 in0.0 mm 0.00 in/hr0.0 mm/hr 0.00 in0.0 mm
09:31 AM 36.9°F2.7°C 34.3°F1.3°C 90% 18.0 mph S29.0 kmh S 22.0 mph35.4 kmh 30.38 in1028.8 mb 0.00 in0.0 mm 0.00 in/hr0.0 mm/hr 0.00 in0.0 mm
09:45 AM 37.1°F2.8°C 34.2°F1.2°C 89% 17.0 mph S27.4 kmh S 20.0 mph32.2 kmh 30.38 in1028.8 mb 0.00 in0.0 mm 0.00 in/hr0.0 mm/hr 0.00 in0.0 mm
10:01 AM 37.4°F3.0°C 34.7°F1.5°C 90% 16.0 mph SSW25.7 kmh SSW 22.0 mph35.4 kmh 30.38 in1028.8 mb 0.00 in0.0 mm 0.00 in/hr0.0 mm/hr 0.00 in0.0 mm
10:15 AM 37.7°F3.2°C 35.0°F1.7°C 90% 14.0 mph S22.5 kmh S 22.0 mph35.4 kmh 30.38 in1028.8 mb 0.00 in0.0 mm 0.00 in/hr0.0 mm/hr 0.00 in0.0 mm
10:30 AM 37.8°F3.2°C 34.9°F1.6°C 89% 17.0 mph SSW27.4 kmh SSW 21.0 mph33.8 kmh 30.39 in1029.1 mb 0.00 in0.0 mm 0.00 in/hr0.0 mm/hr 0.00 in0.0 mm
10:45 AM 38.0°F3.3°C 35.1°F1.7°C 89% 14.0 mph SW22.5 kmh SW 21.0 mph33.8 kmh 30.38 in1028.8 mb 0.00 in0.0 mm 0.00 in/hr0.0 mm/hr 0.00 in0.0 mm
11:01 AM 37.7°F3.2°C 34.5°F1.4°C 88% 13.0 mph SSW20.9 kmh SSW 18.0 mph29.0 kmh 30.39 in1029.1 mb 0.00 in0.0 mm 0.00 in/hr0.0 mm/hr 0.00 in0.0 mm
11:15 AM 37.3°F2.9°C 34.1°F1.2°C 88% 13.0 mph SW20.9 kmh SW 18.0 mph29.0 kmh 30.39 in1029.1 mb 0.00 in0.0 mm 0.00 in/hr0.0 mm/hr 0.00 in0.0 mm
11:31 AM 37.4°F3.0°C 34.5°F1.4°C 89% 11.0 mph SSW17.7 kmh SSW 19.0 mph30.6 kmh 30.38 in1028.8 mb 0.00 in0.0 mm 0.00 in/hr0.0 mm/hr 0.00 in0.0 mm
11:46 AM 37.5°F3.1°C 34.8°F1.6°C 90% 11.0 mph S17.7 kmh S 20.0 mph32.2 kmh 30.37 in1028.4 mb 0.00 in0.0 mm 0.00 in/hr0.0 mm/hr 0.00 in0.0 mm
12:01 PM 37.4°F3.0°C 35.0°F1.7°C 91% 17.0 mph SSW27.4 kmh SSW 21.0 mph33.8 kmh 30.37 in1028.4 mb 0.00 in0.0 mm 0.00 in/hr0.0 mm/hr 0.00 in0.0 mm
12:16 PM 37.5°F3.1°C 34.8°F1.6°C 90% 16.0 mph S25.7 kmh S 21.0 mph33.8 kmh 30.37 in1028.4 mb 0.00 in0.0 mm 0.00 in/hr0.0 mm/hr 0.00 in0.0 mm
12:31 PM 37.7°F3.2°C 35.0°F1.7°C 90% 18.0 mph SSW29.0 kmh SSW 22.0 mph35.4 kmh 30.35 in1027.8 mb 0.01 in0.3 mm 0.04 in/hr1.0 mm/hr 0.01 in0.3 mm
12:45 PM 37.9°F3.3°C 35.2°F1.8°C 90% 20.0 mph SSW32.2 kmh SSW 23.0 mph37.0 kmh 30.35 in1027.8 mb 0.01 in0.3 mm 0.00 in/hr0.0 mm/hr 0.01 in0.3 mm
01:02 PM 38.2°F3.4°C 35.5°F1.9°C 90% 16.0 mph SW25.7 kmh SW 19.0 mph30.6 kmh 30.34 in1027.4 mb 0.01 in0.3 mm 0.00 in/hr0.0 mm/hr 0.01 in0.3 mm
01:15 PM 38.2°F3.4°C 35.5°F1.9°C 90% 16.0 mph S25.7 kmh S 21.0 mph33.8 kmh 30.32 in1026.8 mb 0.01 in0.3 mm 0.00 in/hr0.0 mm/hr 0.01 in0.3 mm
01:31 PM 38.4°F3.6°C 35.7°F2.1°C 90% 12.0 mph SSW19.3 kmh SSW 21.0 mph33.8 kmh 30.32 in1026.8 mb 0.00 in0.0 mm 0.00 in/hr0.0 mm/hr 0.01 in0.3 mm
01:45 PM 38.7°F3.7°C 35.7°F2.1°C 89% 19.0 mph SW30.6 kmh SW 21.0 mph33.8 kmh 30.31 in1026.4 mb 0.00 in0.0 mm 0.00 in/hr0.0 mm/hr 0.01 in0.3 mm
02:01 PM 38.8°F3.8°C 36.4°F2.4°C 91% 18.0 mph S29.0 kmh S 19.0 mph30.6 kmh 30.31 in1026.4 mb 0.00 in0.0 mm 0.00 in/hr0.0 mm/hr 0.01 in0.3 mm
02:15 PM 38.8°F3.8°C 36.1°F2.3°C 90% 8.0 mph SSW12.9 kmh SSW 19.0 mph30.6 kmh 30.30 in1026.1 mb 0.00 in0.0 mm 0.00 in/hr0.0 mm/hr 0.01 in0.3 mm
02:30 PM 38.8°F3.8°C 35.8°F2.1°C 89% 13.0 mph SSW20.9 kmh SSW 17.0 mph27.4 kmh 30.30 in1026.1 mb 0.00 in0.0 mm 0.00 in/hr0.0 mm/hr 0.01 in0.3 mm
02:46 PM 39.0°F3.9°C 35.8°F2.1°C 88% 14.0 mph SW22.5 kmh SW 18.0 mph29.0 kmh 30.29 in1025.7 mb 0.00 in0.0 mm 0.00 in/hr0.0 mm/hr 0.01 in0.3 mm
03:01 PM 39.2°F4.0°C 36.0°F2.2°C 88% 13.0 mph SW20.9 kmh SW 18.0 mph29.0 kmh 30.28 in1025.4 mb 0.00 in0.0 mm 0.00 in/hr0.0 mm/hr 0.01 in0.3 mm
03:16 PM 39.2°F4.0°C 36.0°F2.2°C 88% 11.0 mph SW17.7 kmh SW 17.0 mph27.4 kmh 30.28 in1025.4 mb 0.00 in0.0 mm 0.00 in/hr0.0 mm/hr 0.01 in0.3 mm
03:31 PM 39.3°F4.1°C 36.1°F2.3°C 88% 12.0 mph SW19.3 kmh SW 16.0 mph25.7 kmh 30.28 in1025.4 mb 0.00 in0.0 mm 0.00 in/hr0.0 mm/hr 0.01 in0.3 mm
03:46 PM 39.3°F4.1°C 36.1°F2.3°C 88% 13.0 mph SSW20.9 kmh SSW 16.0 mph25.7 kmh 30.28 in1025.4 mb 0.00 in0.0 mm 0.00 in/hr0.0 mm/hr 0.01 in0.3 mm
04:01 PM 39.5°F4.2°C 36.3°F2.4°C 88% 12.0 mph SSW19.3 kmh SSW 16.0 mph25.7 kmh 30.28 in1025.4 mb 0.00 in0.0 mm 0.00 in/hr0.0 mm/hr 0.01 in0.3 mm
04:15 PM 39.5°F4.2°C 36.3°F2.4°C 88% 11.0 mph SSW17.7 kmh SSW 17.0 mph27.4 kmh 30.28 in1025.4 mb 0.00 in0.0 mm 0.00 in/hr0.0 mm/hr 0.01 in0.3 mm
04:31 PM 39.4°F4.1°C 36.4°F2.4°C 89% 11.0 mph SSW17.7 kmh SSW 14.0 mph22.5 kmh 30.28 in1025.4 mb 0.00 in0.0 mm 0.00 in/hr0.0 mm/hr 0.01 in0.3 mm
04:45 PM 39.4°F4.1°C 36.4°F2.4°C 89% 11.0 mph SW17.7 kmh SW 15.0 mph24.1 kmh 30.28 in1025.4 mb 0.00 in0.0 mm 0.00 in/hr0.0 mm/hr 0.01 in0.3 mm
05:01 PM 39.5°F4.2°C 36.3°F2.4°C 88% 12.0 mph SSW19.3 kmh SSW 16.0 mph25.7 kmh 30.28 in1025.4 mb 0.00 in0.0 mm 0.00 in/hr0.0 mm/hr 0.01 in0.3 mm
05:15 PM 39.5°F4.2°C 36.3°F2.4°C 88% 12.0 mph SSW19.3 kmh SSW 18.0 mph29.0 kmh 30.28 in1025.4 mb 0.00 in0.0 mm 0.00 in/hr0.0 mm/hr 0.01 in0.3 mm
05:30 PM 39.5°F4.2°C 36.3°F2.4°C 88% 10.0 mph SSW16.1 kmh SSW 16.0 mph25.7 kmh 30.27 in1025.1 mb 0.00 in0.0 mm 0.00 in/hr0.0 mm/hr 0.01 in0.3 mm
06:01 PM 39.3°F4.1°C 36.3°F2.4°C 89% 11.0 mph SW17.7 kmh SW 15.0 mph24.1 kmh 30.27 in1025.1 mb 0.00 in0.0 mm 0.00 in/hr0.0 mm/hr 0.01 in0.3 mm
06:15 PM 39.3°F4.1°C 36.6°F2.6°C 90% 14.0 mph SW22.5 kmh SW 15.0 mph24.1 kmh 30.27 in1025.1 mb 0.00 in0.0 mm 0.00 in/hr0.0 mm/hr 0.01 in0.3 mm
06:31 PM 39.2°F4.0°C 36.5°F2.5°C 90% 9.0 mph SW14.5 kmh SW 14.0 mph22.5 kmh 30.26 in1024.7 mb 0.00 in0.0 mm 0.00 in/hr0.0 mm/hr 0.01 in0.3 mm
06:46 PM 39.3°F4.1°C 37.2°F2.9°C 92% 8.0 mph SSW12.9 kmh SSW 13.0 mph20.9 kmh 30.24 in1024.0 mb 0.01 in0.3 mm 0.04 in/hr1.0 mm/hr 0.02 in0.5 mm
07:01 PM 39.6°F4.2°C 37.2°F2.9°C 91% 10.0 mph SSW16.1 kmh SSW 14.0 mph22.5 kmh 30.23 in1023.7 mb 0.01 in0.3 mm 0.00 in/hr0.0 mm/hr 0.02 in0.5 mm
07:16 PM 39.7°F4.3°C 37.3°F2.9°C 91% 9.0 mph S14.5 kmh S 14.0 mph22.5 kmh 30.24 in1024.0 mb 0.01 in0.3 mm 0.00 in/hr0.0 mm/hr 0.02 in0.5 mm
07:31 PM 40.0°F4.4°C 37.6°F3.1°C 91% 14.0 mph S22.5 kmh S 17.0 mph27.4 kmh 30.23 in1023.7 mb 0.01 in0.3 mm 0.00 in/hr0.0 mm/hr 0.02 in0.5 mm
07:46 PM 40.1°F4.5°C 37.7°F3.2°C 91% 13.0 mph S20.9 kmh S 16.0 mph25.7 kmh 30.22 in1023.4 mb 0.01 in0.3 mm 0.00 in/hr0.0 mm/hr 0.02 in0.5 mm
08:01 PM 40.3°F4.6°C 37.6°F3.1°C 90% 9.0 mph S14.5 kmh S 14.0 mph22.5 kmh 30.22 in1023.4 mb 0.02 in0.5 mm 0.01 in/hr0.3 mm/hr 0.03 in0.8 mm
08:15 PM 40.4°F4.7°C 37.7°F3.2°C 90% 9.0 mph S14.5 kmh S 13.0 mph20.9 kmh 30.22 in1023.4 mb 0.02 in0.5 mm 0.00 in/hr0.0 mm/hr 0.03 in0.8 mm
08:30 PM 40.5°F4.7°C 37.5°F3.1°C 89% 11.0 mph SSW17.7 kmh SSW 18.0 mph29.0 kmh 30.22 in1023.4 mb 0.02 in0.5 mm 0.00 in/hr0.0 mm/hr 0.03 in0.8 mm
08:46 PM 40.3°F4.6°C 37.6°F3.1°C 90% 8.0 mph S12.9 kmh S 16.0 mph25.7 kmh 30.20 in1022.7 mb 0.02 in0.5 mm 0.00 in/hr0.0 mm/hr 0.03 in0.8 mm
09:01 PM 40.4°F4.7°C 37.7°F3.2°C 90% 10.0 mph SSE16.1 kmh SSE 15.0 mph24.1 kmh 30.20 in1022.7 mb 0.00 in0.0 mm 0.00 in/hr0.0 mm/hr 0.03 in0.8 mm
09:15 PM 40.5°F4.7°C 37.8°F3.2°C 90% 11.0 mph S17.7 kmh S 15.0 mph24.1 kmh 30.20 in1022.7 mb 0.00 in0.0 mm 0.00 in/hr0.0 mm/hr 0.03 in0.8 mm
09:31 PM 40.6°F4.8°C 37.6°F3.1°C 89% 11.0 mph S17.7 kmh S 16.0 mph25.7 kmh 30.22 in1023.4 mb 0.00 in0.0 mm 0.00 in/hr0.0 mm/hr 0.03 in0.8 mm
09:46 PM 40.5°F4.7°C 37.8°F3.2°C 90% 10.0 mph S16.1 kmh S 13.0 mph20.9 kmh 30.20 in1022.7 mb 0.00 in0.0 mm 0.00 in/hr0.0 mm/hr 0.03 in0.8 mm
10:01 PM 40.6°F4.8°C 37.3°F2.9°C 88% 11.0 mph S17.7 kmh S 15.0 mph24.1 kmh 30.20 in1022.7 mb 0.00 in0.0 mm 0.00 in/hr0.0 mm/hr 0.03 in0.8 mm
10:16 PM 40.4°F4.7°C 37.4°F3.0°C 89% 9.0 mph S14.5 kmh S 12.0 mph19.3 kmh 30.19 in1022.4 mb 0.00 in0.0 mm 0.00 in/hr0.0 mm/hr 0.03 in0.8 mm
10:31 PM 40.4°F4.7°C 37.7°F3.2°C 90% 8.0 mph S12.9 kmh S 9.0 mph14.5 kmh 30.19 in1022.4 mb 0.00 in0.0 mm 0.00 in/hr0.0 mm/hr 0.03 in0.8 mm
10:46 PM 40.2°F4.6°C 37.5°F3.1°C 90% 6.0 mph S9.7 kmh S 8.0 mph12.9 kmh 30.17 in1021.7 mb 0.00 in0.0 mm 0.00 in/hr0.0 mm/hr 0.03 in0.8 mm
11:01 PM 40.2°F4.6°C 37.8°F3.2°C 91% 6.0 mph SSE9.7 kmh SSE 7.0 mph11.3 kmh 30.17 in1021.7 mb 0.00 in0.0 mm 0.00 in/hr0.0 mm/hr 0.03 in0.8 mm
11:15 PM 40.1°F4.5°C 37.7°F3.2°C 91% 5.0 mph S8.0 kmh S 9.0 mph14.5 kmh 30.16 in1021.3 mb 0.00 in0.0 mm 0.00 in/hr0.0 mm/hr 0.03 in0.8 mm
11:30 PM 40.1°F4.5°C 37.4°F3.0°C 90% 6.0 mph S9.7 kmh S 7.0 mph11.3 kmh 30.15 in1021.0 mb 0.00 in0.0 mm 0.00 in/hr0.0 mm/hr 0.03 in0.8 mm
11:45 PM 40.1°F4.5°C 37.7°F3.2°C 91% 5.0 mph SW8.0 kmh SW 7.0 mph11.3 kmh 30.15 in1021.0 mb 0.00 in0.0 mm 0.00 in/hr0.0 mm/hr 0.03 in0.8 mm